createdAt,value
2022-09-05T06:14:51.768Z,51.20
2022-09-05T06:16:11.133Z,52.30
2022-09-05T06:19:23.908Z,53.10
2022-09-05T06:22:43.711Z,52.60
2022-09-05T06:26:09.559Z,51.60
2022-09-05T06:28:56.530Z,51.70
2022-09-05T06:31:54.151Z,51.60
2022-09-05T06:35:00.103Z,52.10
2022-09-05T06:37:42.732Z,51.90
2022-09-05T06:40:19.786Z,51.80
2022-09-05T06:43:14.407Z,51.20
2022-09-05T06:46:06.085Z,51.30
2022-09-05T06:48:45.903Z,51.60
2022-09-05T06:52:29.222Z,51.80
2022-09-05T06:55:33.219Z,51.30
2022-09-05T06:58:42.867Z,51.50
2022-09-05T07:01:14.841Z,51.00
2022-09-05T07:05:14.636Z,51.10
2022-09-05T07:07:16.970Z,51.50
2022-09-05T07:09:57.588Z,51.40
2022-09-05T07:12:30.113Z,50.80
2022-09-05T07:15:10.178Z,50.80
2022-09-05T07:18:09.707Z,51.00
2022-09-05T07:21:18.033Z,50.60
2022-09-05T07:24:05.923Z,50.70
2022-09-05T07:26:53.602Z,50.70
2022-09-05T07:29:27.973Z,50.80
2022-09-05T07:31:57.359Z,50.90
2022-09-05T07:34:31.394Z,50.70
2022-09-05T07:37:15.407Z,51.00
2022-09-05T07:39:49.840Z,50.90
2022-09-05T07:42:25.650Z,51.60
2022-09-05T07:44:57.828Z,54.90
2022-09-05T07:47:30.897Z,52.70
2022-09-05T07:53:49.815Z,53.00
2022-09-05T07:57:06.275Z,52.30
2022-09-05T07:57:09.779Z,53.60
2022-09-05T07:58:46.043Z,52.40
2022-09-05T08:01:15.881Z,51.70
2022-09-05T08:03:44.891Z,53.40
2022-09-05T08:07:14.379Z,52.70
2022-09-05T08:10:05.246Z,51.90
2022-09-05T08:12:16.091Z,51.70
2022-09-05T08:14:52.792Z,51.80
2022-09-05T08:17:26.320Z,51.80
2022-09-05T08:20:25.537Z,53.00
2022-09-05T08:23:05.223Z,56.90
2022-09-05T08:25:57.514Z,54.50
2022-09-05T08:28:37.611Z,54.60
2022-09-05T08:31:14.324Z,53.40
2022-09-05T08:33:44.052Z,53.20
2022-09-05T08:36:25.067Z,52.60
2022-09-05T08:38:55.317Z,52.60
2022-09-05T08:41:42.977Z,52.70
2022-09-05T08:46:39.832Z,52.70
2022-09-05T08:47:28.765Z,52.30
2022-09-05T08:50:30.121Z,53.00
2022-09-05T08:53:26.778Z,52.80
2022-09-05T08:56:10.934Z,52.90
2022-09-05T08:59:28.474Z,52.90
2022-09-05T09:02:46.220Z,53.00
2022-09-05T09:05:14.148Z,52.70
2022-09-05T09:07:52.010Z,52.70
2022-09-05T09:10:48.014Z,52.50
2022-09-05T09:13:35.858Z,52.30
2022-09-05T09:16:10.973Z,52.10
2022-09-05T09:19:08.869Z,51.90
2022-09-05T09:21:47.096Z,51.80
2022-09-05T09:24:31.233Z,52.10
2022-09-05T09:27:06.152Z,52.30
2022-09-05T09:29:41.076Z,52.50
2022-09-05T09:32:14.201Z,52.70
2022-09-05T09:34:55.617Z,52.80
2022-09-05T09:38:09.270Z,52.90
2022-09-05T09:41:23.068Z,53.00
2022-09-05T09:44:52.309Z,53.20
2022-09-05T09:47:46.520Z,53.20
2022-09-05T09:50:29.869Z,53.00
2022-09-05T09:53:26.014Z,53.00
2022-09-05T09:56:36.818Z,52.90
2022-09-05T09:59:59.502Z,52.90
2022-09-05T10:07:17.044Z,53.00
2022-09-05T10:10:45.322Z,52.90
2022-09-05T10:10:52.851Z,52.90
2022-09-05T10:13:17.000Z,53.90
2022-09-05T10:16:31.165Z,53.70
2022-09-05T10:23:07.809Z,53.30
2022-09-05T10:26:11.494Z,53.10
2022-09-05T10:28:45.118Z,53.00
2022-09-05T10:33:24.274Z,53.20
2022-09-05T10:35:14.947Z,53.20
2022-09-05T10:37:13.951Z,53.00
2022-09-05T10:39:47.020Z,53.10
2022-09-05T10:42:25.297Z,53.10
2022-09-05T10:44:56.246Z,53.00
2022-09-05T10:47:39.236Z,53.10
2022-09-05T10:50:25.971Z,53.20
2022-09-05T10:53:10.645Z,53.20
2022-09-05T10:55:56.684Z,53.20
2022-09-05T11:00:56.421Z,53.20
2022-09-05T11:02:27.976Z,53.20
2022-09-05T11:04:54.313Z,53.30
2022-09-05T11:07:37.133Z,53.30
2022-09-05T11:10:12.631Z,53.40
2022-09-05T11:13:07.390Z,53.40
2022-09-05T11:16:04.265Z,53.30
2022-09-05T11:18:57.119Z,53.70
2022-09-05T11:22:04.293Z,53.80
2022-09-05T11:24:51.971Z,53.90
2022-09-05T11:27:31.261Z,54.40
2022-09-05T11:30:06.709Z,54.30
2022-09-05T11:36:42.943Z,54.60
2022-09-05T11:39:55.183Z,54.60
2022-09-05T11:39:56.167Z,54.90
2022-09-05T11:42:42.662Z,54.90
2022-09-05T11:45:36.914Z,55.50
2022-09-05T11:48:59.995Z,55.30
2022-09-05T11:52:28.320Z,55.40
2022-09-05T11:55:34.283Z,55.80
2022-09-05T11:58:53.718Z,55.40
2022-09-05T12:01:42.720Z,56.10
2022-09-05T12:05:50.018Z,55.50
2022-09-05T12:08:04.325Z,55.40
2022-09-05T12:10:48.312Z,55.30
2022-09-05T12:13:42.472Z,55.40
2022-09-05T12:16:50.715Z,55.50
2022-09-05T12:19:32.762Z,55.40
2022-09-05T12:22:23.960Z,55.30
2022-09-05T12:25:26.476Z,55.20
2022-09-05T12:29:26.165Z,55.20
2022-09-05T12:32:43.085Z,55.10
2022-09-05T12:36:12.246Z,55.10
2022-09-05T12:40:06.273Z,55.00
2022-09-05T12:41:33.949Z,54.90
2022-09-05T12:42:56.389Z,54.80
2022-09-05T12:45:50.156Z,54.80
2022-09-05T12:48:38.502Z,54.80
2022-09-05T12:51:11.843Z,54.80
2022-09-05T12:54:09.388Z,54.80
2022-09-05T12:59:46.803Z,54.80
2022-09-05T13:03:01.668Z,54.70
2022-09-05T13:03:07.314Z,54.60
2022-09-05T13:06:00.471Z,54.70
2022-09-05T13:08:43.891Z,54.60
2022-09-05T13:14:47.780Z,54.60
2022-09-05T13:14:53.684Z,54.70
2022-09-05T13:17:00.025Z,54.70
2022-09-05T13:19:37.300Z,54.70
2022-09-05T13:22:08.609Z,54.80
2022-09-05T13:24:41.468Z,54.60
2022-09-05T13:27:15.326Z,54.70
2022-09-05T13:30:35.356Z,54.60
2022-09-05T13:37:58.445Z,54.60
2022-09-05T13:38:30.624Z,54.60
2022-09-05T13:38:49.463Z,55.30
2022-09-05T13:41:28.443Z,55.00
2022-09-05T13:44:25.151Z,55.10
2022-09-05T13:46:58.693Z,54.90
2022-09-05T13:49:33.307Z,54.90
2022-09-05T13:52:29.024Z,55.00
2022-09-05T13:55:22.562Z,55.10
2022-09-05T13:57:57.438Z,55.10
2022-09-05T14:01:28.154Z,55.00
2022-09-05T14:05:07.461Z,55.00
2022-09-05T14:08:18.875Z,55.00
2022-09-05T14:11:22.830Z,55.00
2022-09-05T14:14:11.280Z,55.00
2022-09-05T14:16:53.918Z,55.00
2022-09-05T14:19:43.449Z,54.90
2022-09-05T14:22:22.232Z,55.00
2022-09-05T14:24:56.106Z,54.70
2022-09-05T14:27:32.248Z,54.70
2022-09-05T14:30:38.444Z,54.90
2022-09-05T14:37:41.495Z,56.30
2022-09-05T14:37:42.354Z,55.40
2022-09-05T14:39:34.606Z,56.50
2022-09-05T14:42:24.005Z,56.40
2022-09-05T14:45:43.970Z,56.70
2022-09-05T14:48:54.076Z,56.30
2022-09-05T14:51:43.177Z,56.40
2022-09-05T14:59:35.374Z,56.30
2022-09-05T15:02:52.291Z,56.10
2022-09-05T15:03:06.405Z,56.00
2022-09-05T15:05:41.700Z,56.00
2022-09-05T15:08:31.890Z,56.20
2022-09-05T15:12:21.743Z,56.20
2022-09-05T15:14:07.436Z,56.30
2022-09-05T15:16:43.535Z,56.20
2022-09-05T15:20:06.801Z,56.10
2022-09-05T15:22:38.682Z,55.60
2022-09-05T15:25:17.953Z,55.90
2022-09-05T15:27:48.161Z,55.90
2022-09-05T15:30:34.842Z,55.80
2022-09-05T15:33:18.875Z,55.70
2022-09-05T15:35:58.255Z,55.70
2022-09-05T15:38:54.753Z,55.70
2022-09-05T15:41:24.778Z,55.80
2022-09-05T15:43:59.646Z,55.80
2022-09-05T15:46:47.459Z,55.80
2022-09-05T15:49:29.226Z,55.80
2022-09-05T15:52:03.162Z,55.80
2022-09-05T15:54:37.629Z,55.90
2022-09-05T15:57:15.247Z,55.90
2022-09-05T15:59:52.343Z,55.90
2022-09-05T16:02:24.211Z,55.80
2022-09-05T16:10:28.967Z,55.80
2022-09-05T16:10:37.467Z,55.80
2022-09-05T16:12:05.211Z,55.90
2022-09-05T16:14:24.160Z,55.90
2022-09-05T16:23:13.708Z,55.90
2022-09-05T16:23:26.563Z,55.90
2022-09-05T16:23:29.142Z,55.90
2022-09-05T16:25:37.632Z,55.90
2022-09-05T16:28:12.790Z,55.90
2022-09-05T16:30:41.921Z,55.90
2022-09-05T16:33:17.034Z,55.80
2022-09-05T16:35:54.274Z,55.80
2022-09-05T16:38:36.589Z,55.90
2022-09-05T16:41:24.671Z,55.90
2022-09-05T16:43:57.638Z,55.80
2022-09-05T16:46:32.532Z,55.70
2022-09-05T16:49:12.226Z,55.70
2022-09-05T16:51:45.902Z,55.90
2022-09-05T16:54:25.614Z,55.90
2022-09-05T16:57:00.767Z,55.80
2022-09-05T16:59:32.968Z,55.80
2022-09-05T17:02:11.925Z,55.80
2022-09-05T17:05:10.112Z,55.80
2022-09-05T17:08:07.174Z,55.80
2022-09-05T17:10:44.537Z,55.70
2022-09-05T17:13:39.886Z,55.80
2022-09-05T17:16:13.622Z,55.70
2022-09-05T17:18:43.600Z,55.70
2022-09-05T17:21:43.477Z,55.70
2022-09-05T17:29:25.751Z,55.80
2022-09-05T17:29:36.267Z,55.80
2022-09-05T17:32:59.168Z,57.50
2022-09-05T17:35:43.139Z,57.20
2022-09-05T17:38:52.886Z,57.50
2022-09-05T17:41:43.148Z,57.80
2022-09-05T17:44:20.326Z,58.80
2022-09-05T17:47:06.753Z,58.10
2022-09-05T17:49:44.947Z,58.10
2022-09-05T17:52:24.204Z,58.70
2022-09-05T17:54:55.069Z,59.20
2022-09-05T17:57:50.622Z,58.50
2022-09-05T18:01:07.511Z,58.70
2022-09-05T18:04:16.679Z,58.80
2022-09-05T18:07:00.407Z,58.90
2022-09-05T18:10:03.505Z,58.90
2022-09-05T18:13:13.285Z,59.00
2022-09-05T18:16:11.539Z,58.60
2022-09-05T18:21:51.429Z,57.90
2022-09-05T18:24:35.180Z,58.10
2022-09-05T18:30:11.019Z,57.90
2022-09-05T18:32:47.363Z,57.70
2022-09-05T18:35:36.891Z,57.60
2022-09-05T18:38:50.922Z,57.80
2022-09-05T18:41:23.367Z,58.00
2022-09-05T18:44:13.597Z,58.30
2022-09-05T18:46:50.968Z,58.50
2022-09-05T18:50:25.518Z,58.20
2022-09-05T18:52:23.217Z,58.60
2022-09-05T18:56:08.904Z,60.50
2022-09-05T18:57:57.915Z,59.30
2022-09-05T19:00:46.901Z,60.00
2022-09-05T19:03:24.990Z,59.30
2022-09-05T19:05:59.200Z,59.30
2022-09-05T19:08:51.983Z,59.00
2022-09-05T19:11:32.330Z,58.80
2022-09-05T19:14:25.414Z,58.60
2022-09-05T19:17:07.560Z,58.50
2022-09-05T19:20:32.877Z,58.40
2022-09-05T19:23:11.542Z,58.40
2022-09-05T19:25:43.696Z,58.30
2022-09-05T19:33:17.081Z,58.20
2022-09-05T19:36:56.076Z,58.10
2022-09-05T19:37:04.963Z,58.00
2022-09-05T19:37:30.346Z,57.90
2022-09-05T19:47:12.304Z,57.80
2022-09-05T19:47:40.056Z,57.70
2022-09-05T19:47:44.517Z,57.70
2022-09-05T19:48:34.453Z,57.60
2022-09-05T19:51:17.491Z,57.60
2022-09-05T19:54:03.870Z,57.50
2022-09-05T19:56:38.705Z,57.50
2022-09-05T19:59:22.273Z,57.50
2022-09-05T20:01:53.287Z,58.10
2022-09-05T20:04:22.175Z,57.80
2022-09-05T20:06:51.289Z,61.00
2022-09-05T20:09:22.415Z,59.80
2022-09-05T20:11:52.927Z,60.00
2022-09-05T20:14:25.525Z,59.80
2022-09-05T20:16:58.736Z,60.20
2022-09-05T20:19:32.189Z,59.80
2022-09-05T20:22:12.754Z,60.00
2022-09-05T20:24:54.032Z,60.50
2022-09-05T20:27:27.498Z,60.40
2022-09-05T20:30:00.466Z,60.60
2022-09-05T20:32:39.853Z,60.50
2022-09-05T20:41:52.239Z,60.80
2022-09-05T20:43:17.213Z,60.80
2022-09-05T20:43:24.178Z,61.20
2022-09-05T20:44:01.600Z,60.70
2022-09-05T20:54:06.894Z,59.40
2022-09-05T20:54:14.081Z,58.40
2022-09-05T20:54:28.652Z,59.20
2022-09-05T20:55:41.719Z,58.00
2022-09-05T20:58:13.529Z,57.50
2022-09-05T21:01:11.660Z,57.60
2022-09-05T21:03:38.510Z,57.00
2022-09-05T21:06:33.293Z,56.40
2022-09-05T21:09:22.450Z,56.40
2022-09-05T21:11:55.676Z,56.30
2022-09-05T21:14:27.828Z,56.10
2022-09-05T21:17:01.228Z,56.40
2022-09-05T21:19:41.529Z,57.70
2022-09-05T21:22:24.104Z,57.30
2022-09-05T21:25:18.481Z,56.90
2022-09-05T21:28:01.614Z,56.60
2022-09-05T21:30:33.074Z,56.50
2022-09-05T21:33:07.311Z,56.40
2022-09-05T21:35:43.107Z,56.50
2022-09-05T21:38:15.986Z,56.90
2022-09-05T21:41:02.661Z,57.30
2022-09-05T21:47:37.584Z,57.80
2022-09-05T21:47:44.402Z,58.00
2022-09-05T21:49:09.125Z,56.90
2022-09-05T21:51:38.640Z,56.80
2022-09-05T21:59:21.205Z,57.00
2022-09-05T21:59:25.235Z,56.50
2022-09-05T22:00:07.166Z,56.50
2022-09-05T22:02:48.967Z,56.50
2022-09-05T22:05:17.771Z,56.60
2022-09-05T22:07:46.150Z,56.50
2022-09-05T22:10:16.372Z,56.20
2022-09-05T22:12:44.694Z,55.90
2022-09-05T22:15:27.391Z,55.60
2022-09-05T22:18:08.145Z,55.10
2022-09-05T22:20:51.850Z,55.20
2022-09-05T22:23:43.280Z,55.20
2022-09-05T22:26:13.595Z,54.90
2022-09-05T22:28:48.833Z,54.80
2022-09-05T22:31:17.402Z,54.60
2022-09-05T22:33:45.823Z,54.40
2022-09-05T22:36:19.275Z,54.20
2022-09-05T22:38:47.653Z,54.40
2022-09-05T22:41:17.280Z,54.20
2022-09-05T22:43:46.287Z,54.20
2022-09-05T22:46:14.673Z,54.00
2022-09-05T22:48:42.803Z,54.30
2022-09-05T22:51:10.909Z,53.90
2022-09-05T22:53:39.078Z,54.10
2022-09-05T22:56:08.811Z,53.90
2022-09-05T22:58:43.999Z,53.90
2022-09-05T23:46:37.857Z,53.80
2022-09-05T23:49:06.362Z,53.80
2022-09-05T23:51:38.496Z,53.90
2022-09-05T23:54:06.764Z,54.00
2022-09-05T23:56:34.904Z,53.90
2022-09-05T23:59:03.385Z,53.80
